This is the latest recevied weather packets stored in our database for station/object VK2BNC-13. If no packets are shown the sender has not sent any weather packets the latest 10 day(s).
| Time | Temp. | Humidity | Pressure | Rain* | Wind** | Luminosity | Snow |
|---|---|---|---|---|---|---|---|
| 1777525890 | 24.44° C | 59% | - | 0 mm | - | - | - |
| 1777524989 | 25° C | 56% | - | 0 mm | - | - | - |
| 1777524090 | 25° C | 57% | - | 0 mm | - | - | - |
| 1777523189 | 25° C | 56% | - | 0 mm | - | - | - |
| 1777522290 | 25.56° C | 56% | - | 0 mm | - | - | - |
| 1777521390 | 25° C | 57% | - | 0 mm | - | - | - |
| 1777520490 | 24.44° C | 59% | - | 0 mm | - | - | - |
| 1777519589 | 23.89° C | 60% | - | 0 mm | - | - | - |
| 1777518690 | 23.89° C | 61% | - | 0 mm | - | - | - |
| 1777517790 | 23.33° C | 64% | - | 0 mm | - | - | - |
| 1777516890 | 24.44° C | 62% | - | 0 mm | - | - | - |
| 1777515987 | 24.44° C | 63% | - | 0 mm | - | - | - |
| 1777515086 | 24.44° C | 64% | - | 0 mm | - | - | - |
| 1777514185 | 23.33° C | 65% | - | 0 mm | - | - | - |
| 1777513285 | 23.33° C | 68% | - | 0 mm | - | - | - |
| 1777512384 | 23.33° C | 69% | - | 0 mm | - | - | - |
| 1777511482 | 22.78° C | 71% | - | 0 mm | - | - | - |
| 1777510581 | 22.22° C | 75% | - | 0.25 mm | - | - | - |
| 1777509682 | 21.67° C | 76% | - | 0.25 mm | - | - | - |
| 1777508781 | 20.56° C | 80% | - | 0.25 mm | - | - | - |
| 1777507879 | 20.56° C | 79% | - | 0.25 mm | - | - | - |
| 1777506980 | 19.44° C | 83% | - | 0 mm | - | - | - |
| 1777506077 | 18.89° C | 86% | - | 0 mm | - | - | - |
| 1777505177 | 17.78° C | 91% | - | 0 mm | - | - | - |
| 1777504278 | 17.22° C | 93% | - | 0 mm | - | - | - |
* Rain latest hour (hover to see other rain measurements)
** Current wind speed in m/s (hover to see current wind gust speed)